Jefferson Proving Ground, Indiana
Current Conditions -  °F | °C
As of 7:13 PM on Friday 19 Dec 2014 (Local Time) from KIMS Reporting Station
Overcast Overcast  
Wind Chill: 24°   Ceiling: 2200
Heat Index: 30°   Visibility: 10mi
Dew Point: 21°   Wind: 6mph
Humidity: 69%   Direction: 70°ENE
Pressure: 30.3"   Gusts: NA
Location:  38.7969°N, 85.4186°W
Report Text: KIMS 200013Z AUTO 07005KT 10SM OVC022 M01/M06 A3030 RMK AO1
Loading
Personal Weather Stations






























Interactive Weather Map New forecast layout! Learn more

10-Day Weather Forecast

Advertisements
Track Severe Weather on mobile